sensor_id;sensor_type;location;lat;lon;timestamp;pressure;altitude;pressure_sealevel;temperature;humidity
38718;BME280;24468;52.128;9.278;2023-07-20T00:01:05;100429.84;;;17.85;100.00
38718;BME280;24468;52.128;9.278;2023-07-20T00:03:31;100436.00;;;17.99;100.00
38718;BME280;24468;52.128;9.278;2023-07-20T00:05:56;100428.06;;;17.96;100.00
38718;BME280;24468;52.128;9.278;2023-07-20T00:08:22;100428.44;;;18.03;100.00
38718;BME280;24468;52.128;9.278;2023-07-20T00:10:48;100425.66;;;17.92;100.00
38718;BME280;24468;52.128;9.278;2023-07-20T00:13:13;100411.03;;;17.93;100.00
38718;BME280;24468;52.128;9.278;2023-07-20T00:15:41;100407.03;;;17.86;100.00
38718;BME280;24468;52.128;9.278;2023-07-20T00:18:07;100412.88;;;17.68;100.00
38718;BME280;24468;52.128;9.278;2023-07-20T00:20:33;100416.53;;;17.56;100.00
38718;BME280;24468;52.128;9.278;2023-07-20T00:22:58;100417.06;;;17.37;100.00
38718;BME280;24468;52.128;9.278;2023-07-20T00:25:24;100418.16;;;17.34;100.00
38718;BME280;24468;52.128;9.278;2023-07-20T00:27:50;100424.06;;;17.28;100.00
38718;BME280;24468;52.128;9.278;2023-07-20T00:30:16;100426.03;;;17.26;100.00
38718;BME280;24468;52.128;9.278;2023-07-20T00:32:43;100420.84;;;17.10;100.00
38718;BME280;24468;52.128;9.278;2023-07-20T00:35:09;100418.66;;;17.16;100.00
38718;BME280;24468;52.128;9.278;2023-07-20T00:37:36;100419.34;;;17.06;100.00
38718;BME280;24468;52.128;9.278;2023-07-20T00:40:01;100417.78;;;17.15;100.00
38718;BME280;24468;52.128;9.278;2023-07-20T00:42:30;100420.00;;;16.97;100.00
38718;BME280;24468;52.128;9.278;2023-07-20T00:44:56;100416.00;;;17.27;100.00
38718;BME280;24468;52.128;9.278;2023-07-20T00:47:22;100405.22;;;17.25;100.00
38718;BME280;24468;52.128;9.278;2023-07-20T00:49:48;100415.59;;;17.20;100.00
38718;BME280;24468;52.128;9.278;2023-07-20T00:52:14;100410.59;;;17.38;100.00
38718;BME280;24468;52.128;9.278;2023-07-20T00:54:41;100411.38;;;17.40;100.00
38718;BME280;24468;52.128;9.278;2023-07-20T00:57:07;100409.47;;;17.77;100.00
38718;BME280;24468;52.128;9.278;2023-07-20T00:59:34;100411.84;;;17.58;100.00
38718;BME280;24468;52.128;9.278;2023-07-20T01:02:02;100415.22;;;17.62;100.00
38718;BME280;24468;52.128;9.278;2023-07-20T01:04:28;100418.56;;;17.65;100.00
38718;BME280;24468;52.128;9.278;2023-07-20T01:07:09;100416.06;;;17.62;100.00
38718;BME280;24468;52.128;9.278;2023-07-20T01:10:25;100412.44;;;17.50;100.00
38718;BME280;24468;52.128;9.278;2023-07-20T01:12:55;100408.22;;;17.58;100.00
38718;BME280;24468;52.128;9.278;2023-07-20T01:15:21;100405.88;;;17.53;100.00
38718;BME280;24468;52.128;9.278;2023-07-20T01:17:47;100410.03;;;17.46;100.00
38718;BME280;24468;52.128;9.278;2023-07-20T01:20:15;100402.63;;;17.48;100.00
38718;BME280;24468;52.128;9.278;2023-07-20T01:26:08;100409.28;;;17.20;100.00
38718;BME280;24468;52.128;9.278;2023-07-20T01:31:33;100415.84;;;17.04;100.00
38718;BME280;24468;52.128;9.278;2023-07-20T01:34:01;100412.16;;;17.29;100.00
38718;BME280;24468;52.128;9.278;2023-07-20T01:36:32;100407.69;;;17.76;100.00
38718;BME280;24468;52.128;9.278;2023-07-20T01:38:58;100404.69;;;17.68;100.00
38718;BME280;24468;52.128;9.278;2023-07-20T01:41:24;100413.16;;;17.76;100.00
38718;BME280;24468;52.128;9.278;2023-07-20T01:43:50;100403.59;;;17.47;100.00
38718;BME280;24468;52.128;9.278;2023-07-20T01:46:16;100414.69;;;17.56;100.00
38718;BME280;24468;52.128;9.278;2023-07-20T01:48:41;100412.03;;;17.92;100.00
38718;BME280;24468;52.128;9.278;2023-07-20T01:51:07;100412.81;;;18.05;100.00
38718;BME280;24468;52.128;9.278;2023-07-20T01:53:32;100405.59;;;18.04;100.00
38718;BME280;24468;52.128;9.278;2023-07-20T01:55:58;100402.59;;;17.96;100.00
38718;BME280;24468;52.128;9.278;2023-07-20T01:58:24;100404.84;;;17.91;100.00
38718;BME280;24468;52.128;9.278;2023-07-20T02:00:50;100400.56;;;17.63;100.00
38718;BME280;24468;52.128;9.278;2023-07-20T02:03:15;100410.50;;;17.64;100.00
38718;BME280;24468;52.128;9.278;2023-07-20T02:05:44;100407.88;;;17.38;100.00
38718;BME280;24468;52.128;9.278;2023-07-20T02:08:10;100410.56;;;17.51;100.00
38718;BME280;24468;52.128;9.278;2023-07-20T02:10:36;100396.44;;;17.57;100.00
38718;BME280;24468;52.128;9.278;2023-07-20T02:13:02;100400.56;;;17.39;100.00
38718;BME280;24468;52.128;9.278;2023-07-20T02:15:27;100399.00;;;17.23;100.00
38718;BME280;24468;52.128;9.278;2023-07-20T02:17:54;100406.50;;;16.96;100.00
38718;BME280;24468;52.128;9.278;2023-07-20T02:20:19;100403.69;;;16.84;100.00
38718;BME280;24468;52.128;9.278;2023-07-20T02:22:45;100400.19;;;16.82;100.00
38718;BME280;24468;52.128;9.278;2023-07-20T02:25:11;100403.91;;;16.81;100.00
38718;BME280;24468;52.128;9.278;2023-07-20T02:27:37;100396.47;;;16.83;100.00
38718;BME280;24468;52.128;9.278;2023-07-20T02:30:06;100389.22;;;17.08;100.00
38718;BME280;24468;52.128;9.278;2023-07-20T02:32:32;100389.28;;;17.19;100.00
38718;BME280;24468;52.128;9.278;2023-07-20T02:34:58;100383.78;;;17.08;100.00
38718;BME280;24468;52.128;9.278;2023-07-20T02:37:24;100391.00;;;16.96;100.00
38718;BME280;24468;52.128;9.278;2023-07-20T02:39:49;100385.47;;;16.98;100.00
38718;BME280;24468;52.128;9.278;2023-07-20T02:42:15;100390.13;;;16.96;100.00
38718;BME280;24468;52.128;9.278;2023-07-20T02:44:40;100396.75;;;17.04;100.00
38718;BME280;24468;52.128;9.278;2023-07-20T02:47:06;100400.13;;;17.08;100.00
38718;BME280;24468;52.128;9.278;2023-07-20T02:49:32;100395.28;;;17.24;100.00
38718;BME280;24468;52.128;9.278;2023-07-20T02:51:57;100397.09;;;17.37;100.00
38718;BME280;24468;52.128;9.278;2023-07-20T02:54:23;100394.25;;;17.14;100.00
38718;BME280;24468;52.128;9.278;2023-07-20T02:56:48;100390.00;;;16.97;100.00
38718;BME280;24468;52.128;9.278;2023-07-20T02:59:14;100391.22;;;17.06;100.00
38718;BME280;24468;52.128;9.278;2023-07-20T03:01:39;100387.25;;;17.10;100.00
38718;BME280;24468;52.128;9.278;2023-07-20T03:04:07;100389.53;;;17.16;100.00
38718;BME280;24468;52.128;9.278;2023-07-20T03:06:35;100393.03;;;17.05;100.00
38718;BME280;24468;52.128;9.278;2023-07-20T03:09:01;100402.25;;;17.28;100.00
38718;BME280;24468;52.128;9.278;2023-07-20T03:11:27;100395.09;;;17.39;100.00
38718;BME280;24468;52.128;9.278;2023-07-20T03:13:52;100397.66;;;17.77;100.00
38718;BME280;24468;52.128;9.278;2023-07-20T03:16:19;100401.66;;;17.60;100.00
38718;BME280;24468;52.128;9.278;2023-07-20T03:18:45;100403.56;;;17.84;100.00
38718;BME280;24468;52.128;9.278;2023-07-20T03:21:12;100403.34;;;17.74;100.00
38718;BME280;24468;52.128;9.278;2023-07-20T03:23:41;100409.19;;;17.69;100.00
38718;BME280;24468;52.128;9.278;2023-07-20T03:26:07;100402.44;;;17.62;100.00
38718;BME280;24468;52.128;9.278;2023-07-20T03:28:36;100397.41;;;17.45;100.00
38718;BME280;24468;52.128;9.278;2023-07-20T03:31:03;100406.16;;;17.37;100.00
38718;BME280;24468;52.128;9.278;2023-07-20T03:33:30;100408.06;;;17.48;100.00
38718;BME280;24468;52.128;9.278;2023-07-20T03:35:56;100413.91;;;17.54;100.00
38718;BME280;24468;52.128;9.278;2023-07-20T03:38:23;100414.34;;;17.00;100.00
38718;BME280;24468;52.128;9.278;2023-07-20T03:40:53;100416.09;;;16.63;100.00
38718;BME280;24468;52.128;9.278;2023-07-20T03:43:20;100420.53;;;16.64;100.00
38718;BME280;24468;52.128;9.278;2023-07-20T03:45:46;100418.50;;;16.55;100.00
38718;BME280;24468;52.128;9.278;2023-07-20T03:48:14;100422.72;;;16.59;100.00
38718;BME280;24468;52.128;9.278;2023-07-20T03:50:40;100421.56;;;16.37;100.00
38718;BME280;24468;52.128;9.278;2023-07-20T03:53:05;100427.75;;;16.65;100.00
38718;BME280;24468;52.128;9.278;2023-07-20T03:55:31;100426.22;;;16.61;100.00
38718;BME280;24468;52.128;9.278;2023-07-20T03:57:56;100421.34;;;16.79;100.00
38718;BME280;24468;52.128;9.278;2023-07-20T04:00:22;100429.63;;;16.90;100.00
38718;BME280;24468;52.128;9.278;2023-07-20T04:02:48;100422.22;;;16.79;100.00
38718;BME280;24468;52.128;9.278;2023-07-20T04:05:13;100421.09;;;16.95;100.00
38718;BME280;24468;52.128;9.278;2023-07-20T04:07:39;100424.81;;;16.94;100.00
38718;BME280;24468;52.128;9.278;2023-07-20T04:10:05;100423.69;;;17.09;100.00
38718;BME280;24468;52.128;9.278;2023-07-20T04:12:30;100418.25;;;17.33;100.00
38718;BME280;24468;52.128;9.278;2023-07-20T04:14:56;100422.53;;;17.24;100.00
38718;BME280;24468;52.128;9.278;2023-07-20T04:17:21;100428.06;;;16.99;100.00
38718;BME280;24468;52.128;9.278;2023-07-20T04:19:47;100434.19;;;16.89;100.00
38718;BME280;24468;52.128;9.278;2023-07-20T04:22:13;100444.63;;;16.70;100.00
38718;BME280;24468;52.128;9.278;2023-07-20T04:24:43;100438.53;;;16.66;100.00
38718;BME280;24468;52.128;9.278;2023-07-20T04:27:09;100449.47;;;16.79;100.00
38718;BME280;24468;52.128;9.278;2023-07-20T04:29:34;100448.56;;;16.40;100.00
38718;BME280;24468;52.128;9.278;2023-07-20T04:32:00;100447.69;;;16.78;100.00
38718;BME280;24468;52.128;9.278;2023-07-20T04:34:25;100452.28;;;16.65;100.00
38718;BME280;24468;52.128;9.278;2023-07-20T04:36:51;100446.59;;;16.55;100.00
38718;BME280;24468;52.128;9.278;2023-07-20T04:39:16;100456.41;;;16.58;100.00
38718;BME280;24468;52.128;9.278;2023-07-20T04:41:42;100457.94;;;15.96;100.00
38718;BME280;24468;52.128;9.278;2023-07-20T04:44:08;100449.31;;;15.63;100.00
38718;BME280;24468;52.128;9.278;2023-07-20T04:46:33;100458.88;;;15.41;100.00
38718;BME280;24468;52.128;9.278;2023-07-20T04:48:59;100456.00;;;15.30;100.00
38718;BME280;24468;52.128;9.278;2023-07-20T04:51:24;100462.41;;;15.29;100.00
38718;BME280;24468;52.128;9.278;2023-07-20T04:53:50;100461.44;;;15.30;100.00
38718;BME280;24468;52.128;9.278;2023-07-20T04:56:16;100463.94;;;15.47;100.00
38718;BME280;24468;52.128;9.278;2023-07-20T04:58:48;100467.75;;;15.57;100.00
38718;BME280;24468;52.128;9.278;2023-07-20T05:01:13;100466.41;;;15.65;100.00
38718;BME280;24468;52.128;9.278;2023-07-20T05:03:39;100464.97;;;15.59;100.00
38718;BME280;24468;52.128;9.278;2023-07-20T05:06:04;100468.78;;;15.42;100.00
38718;BME280;24468;52.128;9.278;2023-07-20T05:08:30;100465.22;;;15.42;100.00
38718;BME280;24468;52.128;9.278;2023-07-20T05:10:55;100470.28;;;15.19;100.00
38718;BME280;24468;52.128;9.278;2023-07-20T05:13:21;100470.00;;;15.09;100.00
38718;BME280;24468;52.128;9.278;2023-07-20T05:15:46;100468.19;;;14.96;100.00
38718;BME280;24468;52.128;9.278;2023-07-20T05:18:13;100474.78;;;15.06;100.00
38718;BME280;24468;52.128;9.278;2023-07-20T05:20:39;100471.16;;;15.34;100.00
38718;BME280;24468;52.128;9.278;2023-07-20T05:23:04;100471.22;;;15.47;100.00
38718;BME280;24468;52.128;9.278;2023-07-20T05:25:30;100467.09;;;15.68;100.00
38718;BME280;24468;52.128;9.278;2023-07-20T05:27:56;100473.25;;;15.43;100.00
38718;BME280;24468;52.128;9.278;2023-07-20T05:30:23;100475.47;;;15.51;100.00
38718;BME280;24468;52.128;9.278;2023-07-20T05:32:48;100476.69;;;15.60;100.00
38718;BME280;24468;52.128;9.278;2023-07-20T05:35:18;100481.47;;;15.56;100.00
38718;BME280;24468;52.128;9.278;2023-07-20T05:37:45;100487.00;;;15.54;100.00
38718;BME280;24468;52.128;9.278;2023-07-20T05:40:11;100490.50;;;15.56;100.00
38718;BME280;24468;52.128;9.278;2023-07-20T05:42:40;100481.56;;;15.54;100.00
38718;BME280;24468;52.128;9.278;2023-07-20T05:45:06;100487.56;;;15.18;100.00
38718;BME280;24468;52.128;9.278;2023-07-20T05:47:32;100486.66;;;15.32;100.00
38718;BME280;24468;52.128;9.278;2023-07-20T05:49:58;100496.47;;;15.34;100.00
38718;BME280;24468;52.128;9.278;2023-07-20T05:52:23;100492.06;;;15.46;100.00
38718;BME280;24468;52.128;9.278;2023-07-20T05:54:49;100496.28;;;15.38;100.00
38718;BME280;24468;52.128;9.278;2023-07-20T05:57:15;100494.09;;;15.57;100.00
38718;BME280;24468;52.128;9.278;2023-07-20T05:59:40;100487.25;;;15.37;100.00
38718;BME280;24468;52.128;9.278;2023-07-20T06:02:09;100493.84;;;15.47;100.00
38718;BME280;24468;52.128;9.278;2023-07-20T06:04:35;100488.66;;;15.57;100.00
38718;BME280;24468;52.128;9.278;2023-07-20T06:07:01;100486.91;;;15.70;100.00
38718;BME280;24468;52.128;9.278;2023-07-20T06:09:27;100496.91;;;15.97;100.00
38718;BME280;24468;52.128;9.278;2023-07-20T06:11:53;100490.84;;;16.06;100.00
38718;BME280;24468;52.128;9.278;2023-07-20T06:14:18;100499.81;;;16.34;100.00
38718;BME280;24468;52.128;9.278;2023-07-20T06:16:44;100495.75;;;16.14;100.00
38718;BME280;24468;52.128;9.278;2023-07-20T06:19:11;100500.91;;;16.31;100.00
38718;BME280;24468;52.128;9.278;2023-07-20T06:21:38;100507.94;;;16.61;100.00
38718;BME280;24468;52.128;9.278;2023-07-20T06:24:03;100510.19;;;16.41;100.00
38718;BME280;24468;52.128;9.278;2023-07-20T06:26:29;100503.75;;;16.30;100.00
38718;BME280;24468;52.128;9.278;2023-07-20T06:28:56;100519.63;;;15.96;100.00
38718;BME280;24468;52.128;9.278;2023-07-20T06:31:22;100516.94;;;15.69;100.00
38718;BME280;24468;52.128;9.278;2023-07-20T06:33:48;100510.13;;;15.62;100.00
38718;BME280;24468;52.128;9.278;2023-07-20T06:36:26;100521.66;;;15.65;100.00
38718;BME280;24468;52.128;9.278;2023-07-20T06:38:52;100522.31;;;15.83;100.00
38718;BME280;24468;52.128;9.278;2023-07-20T06:44:03;100524.72;;;15.88;100.00
38718;BME280;24468;52.128;9.278;2023-07-20T06:49:27;100533.91;;;15.72;100.00
38718;BME280;24468;52.128;9.278;2023-07-20T06:51:54;100536.88;;;15.82;100.00
38718;BME280;24468;52.128;9.278;2023-07-20T06:54:20;100533.28;;;15.82;100.00
38718;BME280;24468;52.128;9.278;2023-07-20T06:56:45;100539.78;;;15.93;100.00
38718;BME280;24468;52.128;9.278;2023-07-20T06:59:11;100542.75;;;16.03;100.00
38718;BME280;24468;52.128;9.278;2023-07-20T07:01:36;100541.31;;;16.25;100.00
38718;BME280;24468;52.128;9.278;2023-07-20T07:04:02;100540.66;;;16.21;100.00
38718;BME280;24468;52.128;9.278;2023-07-20T07:06:28;100537.94;;;16.34;100.00
38718;BME280;24468;52.128;9.278;2023-07-20T07:08:54;100537.19;;;16.32;100.00
38718;BME280;24468;52.128;9.278;2023-07-20T07:11:21;100537.47;;;16.54;100.00
38718;BME280;24468;52.128;9.278;2023-07-20T07:13:47;100535.88;;;16.90;100.00
38718;BME280;24468;52.128;9.278;2023-07-20T07:16:15;100539.88;;;16.72;100.00
38718;BME280;24468;52.128;9.278;2023-07-20T07:18:46;100541.38;;;16.63;100.00
38718;BME280;24468;52.128;9.278;2023-07-20T07:21:12;100540.09;;;17.32;100.00
38718;BME280;24468;52.128;9.278;2023-07-20T07:23:38;100540.00;;;17.21;100.00
38718;BME280;24468;52.128;9.278;2023-07-20T07:26:04;100539.09;;;16.57;100.00
38718;BME280;24468;52.128;9.278;2023-07-20T07:28:29;100537.53;;;16.93;100.00
38718;BME280;24468;52.128;9.278;2023-07-20T07:30:55;100534.13;;;17.15;100.00
38718;BME280;24468;52.128;9.278;2023-07-20T07:33:22;100541.63;;;17.11;100.00
38718;BME280;24468;52.128;9.278;2023-07-20T07:35:50;100535.25;;;17.62;100.00
38718;BME280;24468;52.128;9.278;2023-07-20T07:38:18;100546.75;;;17.91;100.00
38718;BME280;24468;52.128;9.278;2023-07-20T07:40:44;100535.66;;;17.68;100.00
38718;BME280;24468;52.128;9.278;2023-07-20T07:43:09;100536.25;;;17.97;100.00
38718;BME280;24468;52.128;9.278;2023-07-20T07:45:35;100539.72;;;17.99;100.00
38718;BME280;24468;52.128;9.278;2023-07-20T07:48:05;100553.81;;;17.44;100.00
38718;BME280;24468;52.128;9.278;2023-07-20T07:50:31;100548.41;;;17.18;100.00
38718;BME280;24468;52.128;9.278;2023-07-20T07:52:57;100547.13;;;16.98;100.00
38718;BME280;24468;52.128;9.278;2023-07-20T07:55:24;100553.63;;;17.21;100.00
38718;BME280;24468;52.128;9.278;2023-07-20T07:57:49;100543.28;;;17.89;100.00
38718;BME280;24468;52.128;9.278;2023-07-20T08:00:15;100546.88;;;17.76;100.00
38718;BME280;24468;52.128;9.278;2023-07-20T08:02:47;100546.03;;;17.63;100.00
38718;BME280;24468;52.128;9.278;2023-07-20T08:05:13;100548.84;;;17.74;100.00
38718;BME280;24468;52.128;9.278;2023-07-20T08:07:39;100552.31;;;17.40;100.00
38718;BME280;24468;52.128;9.278;2023-07-20T08:10:06;100560.06;;;17.07;100.00
38718;BME280;24468;52.128;9.278;2023-07-20T08:12:32;100558.78;;;17.00;100.00
38718;BME280;24468;52.128;9.278;2023-07-20T08:14:57;100562.75;;;17.46;100.00
38718;BME280;24468;52.128;9.278;2023-07-20T08:17:23;100554.69;;;18.18;100.00
38718;BME280;24468;52.128;9.278;2023-07-20T08:19:48;100558.03;;;18.10;100.00
38718;BME280;24468;52.128;9.278;2023-07-20T08:22:14;100559.50;;;18.62;100.00
38718;BME280;24468;52.128;9.278;2023-07-20T08:24:40;100551.66;;;18.34;100.00
38718;BME280;24468;52.128;9.278;2023-07-20T08:27:06;100559.34;;;17.81;100.00
38718;BME280;24468;52.128;9.278;2023-07-20T08:29:32;100562.91;;;17.94;100.00
38718;BME280;24468;52.128;9.278;2023-07-20T08:31:57;100560.53;;;18.13;100.00
38718;BME280;24468;52.128;9.278;2023-07-20T08:34:23;100563.63;;;18.44;100.00
38718;BME280;24468;52.128;9.278;2023-07-20T08:36:48;100557.97;;;18.58;100.00
38718;BME280;24468;52.128;9.278;2023-07-20T08:39:14;100556.44;;;18.43;100.00
38718;BME280;24468;52.128;9.278;2023-07-20T08:41:46;100551.03;;;18.54;100.00
38718;BME280;24468;52.128;9.278;2023-07-20T08:44:11;100548.66;;;18.96;100.00
38718;BME280;24468;52.128;9.278;2023-07-20T08:46:38;100551.75;;;18.92;100.00
38718;BME280;24468;52.128;9.278;2023-07-20T08:49:05;100552.28;;;18.73;100.00
38718;BME280;24468;52.128;9.278;2023-07-20T08:51:32;100571.97;;;17.94;100.00
38718;BME280;24468;52.128;9.278;2023-07-20T08:53:59;100564.63;;;17.95;100.00
38718;BME280;24468;52.128;9.278;2023-07-20T08:56:26;100573.34;;;18.00;100.00
38718;BME280;24468;52.128;9.278;2023-07-20T08:58:55;100575.56;;;17.95;100.00
38718;BME280;24468;52.128;9.278;2023-07-20T09:01:21;100561.59;;;18.70;100.00
38718;BME280;24468;52.128;9.278;2023-07-20T09:03:47;100555.88;;;19.08;100.00
38718;BME280;24468;52.128;9.278;2023-07-20T09:06:13;100569.50;;;18.75;100.00
38718;BME280;24468;52.128;9.278;2023-07-20T09:08:40;100566.84;;;18.73;100.00
38718;BME280;24468;52.128;9.278;2023-07-20T09:11:06;100559.50;;;18.98;100.00
38718;BME280;24468;52.128;9.278;2023-07-20T09:13:33;100560.44;;;18.85;100.00
38718;BME280;24468;52.128;9.278;2023-07-20T09:15:59;100557.41;;;19.24;100.00
38718;BME280;24468;52.128;9.278;2023-07-20T09:18:27;100552.06;;;19.56;100.00
38718;BME280;24468;52.128;9.278;2023-07-20T09:21:01;100559.88;;;19.49;100.00
38718;BME280;24468;52.128;9.278;2023-07-20T09:23:32;100558.28;;;19.58;100.00
38718;BME280;24468;52.128;9.278;2023-07-20T09:25:58;100553.78;;;19.68;89.95
38718;BME280;24468;52.128;9.278;2023-07-20T09:28:24;100550.53;;;20.29;92.92
38718;BME280;24468;52.128;9.278;2023-07-20T09:30:49;100554.78;;;19.56;100.00
38718;BME280;24468;52.128;9.278;2023-07-20T09:33:21;100555.13;;;19.63;99.36
38718;BME280;24468;52.128;9.278;2023-07-20T09:35:46;100549.16;;;19.91;98.02
38718;BME280;24468;52.128;9.278;2023-07-20T09:38:14;100561.88;;;19.47;98.68
38718;BME280;24468;52.128;9.278;2023-07-20T09:40:41;100545.41;;;19.92;95.24
38718;BME280;24468;52.128;9.278;2023-07-20T09:43:10;100550.19;;;20.23;96.57
38718;BME280;24468;52.128;9.278;2023-07-20T09:45:41;100558.13;;;19.60;98.84
38718;BME280;24468;52.128;9.278;2023-07-20T09:48:08;100562.81;;;18.90;92.27
38718;BME280;24468;52.128;9.278;2023-07-20T09:50:40;100556.78;;;19.54;93.00
38718;BME280;24468;52.128;9.278;2023-07-20T09:53:09;100555.41;;;19.60;91.85
38718;BME280;24468;52.128;9.278;2023-07-20T09:55:36;100568.31;;;19.58;92.24
38718;BME280;24468;52.128;9.278;2023-07-20T09:58:02;100566.72;;;19.32;100.00
38718;BME280;24468;52.128;9.278;2023-07-20T10:00:29;100567.16;;;18.81;100.00
38718;BME280;24468;52.128;9.278;2023-07-20T10:02:56;100562.63;;;19.83;100.00
38718;BME280;24468;52.128;9.278;2023-07-20T10:05:24;100558.66;;;19.76;95.78
38718;BME280;24468;52.128;9.278;2023-07-20T10:07:53;100557.00;;;19.62;93.49
38718;BME280;24468;52.128;9.278;2023-07-20T10:10:20;100561.75;;;19.71;93.43
38718;BME280;24468;52.128;9.278;2023-07-20T10:12:48;100561.97;;;19.91;90.95
38718;BME280;24468;52.128;9.278;2023-07-20T10:15:20;100562.72;;;20.36;84.38
38718;BME280;24468;52.128;9.278;2023-07-20T10:18:04;100554.28;;;20.28;86.02
38718;BME280;24468;52.128;9.278;2023-07-20T10:20:33;100557.94;;;20.50;85.05
38718;BME280;24468;52.128;9.278;2023-07-20T10:23:00;100550.50;;;21.24;83.74
38718;BME280;24468;52.128;9.278;2023-07-20T10:25:26;100559.56;;;20.73;77.81
38718;BME280;24468;52.128;9.278;2023-07-20T10:27:52;100563.72;;;20.35;77.85
38718;BME280;24468;52.128;9.278;2023-07-20T10:30:18;100554.50;;;20.69;76.73
38718;BME280;24468;52.128;9.278;2023-07-20T10:32:45;100564.53;;;20.79;77.60
38718;BME280;24468;52.128;9.278;2023-07-20T10:35:16;100554.41;;;20.59;78.16
38718;BME280;24468;52.128;9.278;2023-07-20T10:37:49;100547.25;;;20.68;77.91
38718;BME280;24468;52.128;9.278;2023-07-20T10:40:29;100542.00;;;20.55;74.94
38718;BME280;24468;52.128;9.278;2023-07-20T10:43:04;100548.63;;;21.25;74.30
38718;BME280;24468;52.128;9.278;2023-07-20T10:48:13;100543.84;;;21.17;67.37
38718;BME280;24468;52.128;9.278;2023-07-20T10:50:40;100539.59;;;21.74;66.80
38718;BME280;24468;52.128;9.278;2023-07-20T10:53:16;100542.84;;;21.49;69.37
38718;BME280;24468;52.128;9.278;2023-07-20T10:55:42;100537.97;;;21.01;69.11
38718;BME280;24468;52.128;9.278;2023-07-20T10:58:14;100548.78;;;21.23;70.40
38718;BME280;24468;52.128;9.278;2023-07-20T11:01:03;100542.72;;;20.78;62.05
38718;BME280;24468;52.128;9.278;2023-07-20T11:03:38;100544.38;;;21.11;64.06
38718;BME280;24468;52.128;9.278;2023-07-20T11:06:30;100543.78;;;20.86;66.70
38718;BME280;24468;52.128;9.278;2023-07-20T11:09:15;100550.34;;;21.47;66.83
38718;BME280;24468;52.128;9.278;2023-07-20T11:11:46;100534.97;;;21.65;67.22
38718;BME280;24468;52.128;9.278;2023-07-20T11:14:25;100538.19;;;21.40;64.78
38718;BME280;24468;52.128;9.278;2023-07-20T11:16:53;100544.91;;;21.36;65.27
38718;BME280;24468;52.128;9.278;2023-07-20T11:19:23;100538.59;;;21.14;63.03
38718;BME280;24468;52.128;9.278;2023-07-20T11:21:54;100544.19;;;21.03;61.58
38718;BME280;24468;52.128;9.278;2023-07-20T11:24:20;100531.97;;;21.88;61.41
38718;BME280;24468;52.128;9.278;2023-07-20T11:26:51;100533.72;;;21.89;62.60
38718;BME280;24468;52.128;9.278;2023-07-20T11:29:22;100498.63;;;22.12;58.74
38718;BME280;24468;52.128;9.278;2023-07-20T11:31:48;100534.50;;;21.29;60.62
38718;BME280;24468;52.128;9.278;2023-07-20T11:34:19;100524.22;;;22.03;62.03
38718;BME280;24468;52.128;9.278;2023-07-20T11:36:48;100535.78;;;22.06;58.44
38718;BME280;24468;52.128;9.278;2023-07-20T11:39:17;100528.66;;;21.94;58.57
38718;BME280;24468;52.128;9.278;2023-07-20T11:41:50;100520.06;;;22.47;57.25
38718;BME280;24468;52.128;9.278;2023-07-20T11:44:17;100525.53;;;21.27;60.32
38718;BME280;24468;52.128;9.278;2023-07-20T11:46:44;100519.22;;;21.77;60.09
38718;BME280;24468;52.128;9.278;2023-07-20T11:49:11;100512.97;;;21.56;60.83
38718;BME280;24468;52.128;9.278;2023-07-20T11:51:37;100516.34;;;21.79;59.73
38718;BME280;24468;52.128;9.278;2023-07-20T11:54:05;100508.00;;;21.90;58.54
38718;BME280;24468;52.128;9.278;2023-07-20T11:56:31;100502.88;;;22.35;60.64
38718;BME280;24468;52.128;9.278;2023-07-20T11:59:00;100514.41;;;22.29;64.12
38718;BME280;24468;52.128;9.278;2023-07-20T12:01:28;100501.25;;;22.23;60.65
38718;BME280;24468;52.128;9.278;2023-07-20T12:04:03;100501.53;;;22.59;56.96
38718;BME280;24468;52.128;9.278;2023-07-20T12:06:29;100507.38;;;21.76;54.92
38718;BME280;24468;52.128;9.278;2023-07-20T12:08:57;100506.81;;;21.83;60.94
38718;BME280;24468;52.128;9.278;2023-07-20T12:11:39;100497.88;;;21.90;57.62
38718;BME280;24468;52.128;9.278;2023-07-20T12:14:09;100501.94;;;22.15;57.49
38718;BME280;24468;52.128;9.278;2023-07-20T12:16:36;100505.03;;;22.41;56.39
38718;BME280;24468;52.128;9.278;2023-07-20T12:19:06;100512.91;;;21.86;61.61
38718;BME280;24468;52.128;9.278;2023-07-20T12:21:35;100513.09;;;21.54;66.06
38718;BME280;24468;52.128;9.278;2023-07-20T12:24:04;100509.06;;;21.48;66.98
38718;BME280;24468;52.128;9.278;2023-07-20T12:26:32;100509.25;;;21.05;65.02
38718;BME280;24468;52.128;9.278;2023-07-20T12:28:58;100506.50;;;21.05;68.03
38718;BME280;24468;52.128;9.278;2023-07-20T12:31:25;100514.00;;;21.03;69.51
38718;BME280;24468;52.128;9.278;2023-07-20T12:33:51;100510.97;;;20.43;68.32
38718;BME280;24468;52.128;9.278;2023-07-20T12:36:18;100517.63;;;20.40;69.72
38718;BME280;24468;52.128;9.278;2023-07-20T12:38:43;100520.00;;;20.66;68.87
38718;BME280;24468;52.128;9.278;2023-07-20T12:41:11;100512.81;;;20.54;68.77
38718;BME280;24468;52.128;9.278;2023-07-20T12:43:41;100518.78;;;20.59;70.99
38718;BME280;24468;52.128;9.278;2023-07-20T12:46:07;100516.97;;;20.69;68.05
38718;BME280;24468;52.128;9.278;2023-07-20T12:48:33;100516.28;;;20.98;70.36
38718;BME280;24468;52.128;9.278;2023-07-20T12:50:59;100513.06;;;20.51;71.65
38718;BME280;24468;52.128;9.278;2023-07-20T12:53:24;100509.25;;;21.36;70.34
38718;BME280;24468;52.128;9.278;2023-07-20T12:55:50;100502.94;;;21.95;66.59
38718;BME280;24468;52.128;9.278;2023-07-20T12:58:15;100492.59;;;21.48;67.95